Time;durP1;ratioP1;P1;durP2;ratioP2;P2;SDS_P1;SDS_P2;PMS_P1;PMS_P2;Temp;Humidity;BMP_temperature;BMP_pressure;BME280_temperature;BME280_humidity;BME280_pressure;Samples;Min_cycle;Max_cycle;Signal;HPM_P1;HPM_P2
2021/05/09 00:01:21;;;;;;;3.53;2.50;;;;;;;11.77;37.99;95730.13;5052263;28;20450;-66
2021/05/09 00:03:48;;;;;;;4.03;2.40;;;;;;;11.65;38.16;95711.03;5058341;28;20952;-65
2021/05/09 00:06:15;;;;;;;2.60;2.37;;;;;;;11.83;37.90;95731.75;5056385;28;20464;-65
2021/05/09 00:08:42;;;;;;;5.57;2.83;;;;;;;11.83;38.15;95731.75;5054985;28;20540;-66
2021/05/09 00:11:08;;;;;;;4.37;3.40;;;;;;;11.43;38.52;95736.41;5057234;28;20796;-64
2021/05/09 00:13:36;;;;;;;5.47;3.30;;;;;;;11.77;37.98;95728.25;5055042;28;20442;-70
2021/05/09 00:16:03;;;;;;;6.10;3.27;;;;;;;11.82;38.69;95730.19;5057024;28;20505;-65
2021/05/09 00:18:29;;;;;;;5.27;3.60;;;;;;;11.58;37.96;95713.00;5052761;28;20439;-64
2021/05/09 00:20:56;;;;;;;6.80;3.27;;;;;;;11.78;38.27;95724.63;5053394;28;20542;-66
2021/05/09 00:23:23;;;;;;;4.43;3.20;;;;;;;11.66;38.60;95733.63;5053152;28;20439;-64
2021/05/09 00:25:50;;;;;;;7.00;3.03;;;;;;;11.59;38.73;95735.59;5052830;28;20486;-68
2021/05/09 00:28:16;;;;;;;6.37;3.00;;;;;;;11.54;38.66;95727.63;5053802;28;20486;-69
2021/05/09 00:30:43;;;;;;;4.53;2.97;;;;;;;11.21;39.05;95713.53;5053012;28;20830;-69
2021/05/09 00:33:10;;;;;;;4.17;2.40;;;;;;;11.44;38.61;95722.25;5035082;28;20498;-64
2021/05/09 00:35:37;;;;;;;3.07;2.47;;;;;;;11.38;38.67;95718.75;5056828;28;20461;-66
2021/05/09 00:38:03;;;;;;;4.53;2.43;;;;;;;11.53;39.15;95726.84;5064031;28;20794;-67
2021/05/09 00:40:30;;;;;;;2.47;2.00;;;;;;;11.63;38.67;95713.06;5072134;28;20441;-68
2021/05/09 00:42:57;;;;;;;5.97;2.50;;;;;;;11.67;38.58;95716.84;5072265;28;20827;-66
2021/05/09 00:45:23;;;;;;;4.83;2.53;;;;;;;11.46;38.95;95725.44;5067981;28;20481;-69
2021/05/09 00:47:50;;;;;;;8.83;2.60;;;;;;;11.17;39.75;95725.53;5067702;28;20466;-66
2021/05/09 00:50:18;;;;;;;4.77;2.30;;;;;;;11.47;39.53;95732.25;5067703;28;20456;-65
2021/05/09 00:52:49;;;;;;;4.00;2.20;;;;;;;11.43;39.36;95731.94;5049830;28;20442;-65
2021/05/09 00:55:17;;;;;;;3.50;2.50;;;;;;;11.49;38.98;95724.94;5072136;28;20504;-64
2021/05/09 00:57:47;;;;;;;5.57;2.50;;;;;;;11.45;39.30;95723.84;5071436;28;20438;-65
2021/05/09 01:00:14;;;;;;;3.43;2.43;;;;;;;11.43;39.35;95731.16;5049293;28;20465;-64
2021/05/09 01:02:42;;;;;;;6.10;2.43;;;;;;;11.62;38.92;95732.50;5068112;28;20495;-70
2021/05/09 01:05:11;;;;;;;6.10;2.57;;;;;;;11.18;39.68;95728.94;5054338;28;21143;-67
2021/05/09 01:07:38;;;;;;;4.10;2.50;;;;;;;11.44;40.00;95732.75;5056827;28;20443;-62
2021/05/09 01:10:07;;;;;;;8.13;2.47;;;;;;;11.60;39.81;95737.19;5054288;28;20585;-64
2021/05/09 01:12:34;;;;;;;6.57;2.40;;;;;;;11.62;40.68;95743.00;5039950;28;20616;-70
2021/05/09 01:15:06;;;;;;;4.33;2.20;;;;;;;11.73;40.59;95742.13;5065612;28;20604;-67
2021/05/09 01:17:33;;;;;;;5.90;2.77;;;;;;;11.67;40.59;95735.22;5059399;28;20442;-69
2021/05/09 01:20:20;;;;;;;3.90;2.40;;;;;;;11.51;41.26;95744.69;5033118;28;20431;-68
2021/05/09 01:22:47;;;;;;;4.77;2.53;;;;;;;11.43;41.76;95731.16;5024267;28;20481;-69
2021/05/09 01:25:15;;;;;;;5.00;2.83;;;;;;;11.59;41.85;95735.59;5051359;28;20435;-67
2021/05/09 01:27:41;;;;;;;3.67;2.30;;;;;;;11.53;41.45;95736.56;5057517;28;20446;-66
2021/05/09 01:30:09;;;;;;;5.87;2.97;;;;;;;11.40;42.06;95736.88;5033853;28;20542;-72
2021/05/09 01:32:37;;;;;;;5.03;3.30;;;;;;;11.43;41.88;95747.69;5033767;28;20870;-69
2021/05/09 01:35:04;;;;;;;7.20;3.60;;;;;;;11.30;42.64;95755.09;5052220;28;20489;-69
2021/05/09 01:37:31;;;;;;;6.77;4.60;;;;;;;11.20;42.97;95753.88;5070475;28;20443;-68
2021/05/09 01:39:59;;;;;;;6.93;4.83;;;;;;;11.13;42.68;95748.00;5066702;28;20449;-67
2021/05/09 01:42:26;;;;;;;9.73;5.30;;;;;;;10.98;43.75;95755.63;5051635;28;20446;-68
2021/05/09 01:44:55;;;;;;;7.70;4.90;;;;;;;10.82;43.96;95753.00;5069501;28;20430;-69
2021/05/09 01:47:25;;;;;;;6.53;4.97;;;;;;;10.89;44.32;95761.50;5070899;28;20465;-70
2021/05/09 01:49:53;;;;;;;9.47;6.23;;;;;;;10.82;44.00;95760.84;5052900;28;20488;-69
2021/05/09 01:52:21;;;;;;;9.47;5.60;;;;;;;10.83;44.46;95763.25;5071855;28;20989;-69
2021/05/09 01:54:48;;;;;;;6.10;4.80;;;;;;;10.79;44.24;95767.34;5073989;28;20529;-72
2021/05/09 01:57:16;;;;;;;5.83;4.53;;;;;;;10.82;44.30;95769.50;5057139;28;20959;-66
2021/05/09 01:59:46;;;;;;;10.10;5.70;;;;;;;10.71;44.36;95754.63;5057455;28;20555;-69
2021/05/09 02:02:13;;;;;;;6.90;4.43;;;;;;;10.78;44.19;95771.03;5073939;28;20446;-70
2021/05/09 02:04:45;;;;;;;6.83;4.47;;;;;;;10.76;44.42;95772.28;5052905;28;20469;-63
2021/05/09 02:07:18;;;;;;;6.10;4.80;;;;;;;10.61;44.68;95775.41;5070343;28;20474;-69
2021/05/09 02:09:47;;;;;;;9.57;4.60;;;;;;;10.66;45.08;95778.13;5055571;28;20493;-71
2021/05/09 02:12:16;;;;;;;7.73;4.60;;;;;;;10.44;45.11;95748.34;5068897;28;20525;-64
2021/05/09 02:14:48;;;;;;;6.73;4.60;;;;;;;10.41;45.89;95769.78;5069637;28;20434;-70
2021/05/09 02:17:16;;;;;;;8.23;4.93;;;;;;;10.25;46.36;95781.00;5069535;28;20457;-68
2021/05/09 02:19:51;;;;;;;7.93;5.10;;;;;;;10.30;45.49;95778.47;5031745;28;20447;-65
2021/05/09 02:22:23;;;;;;;5.90;4.53;;;;;;;10.27;45.51;95776.31;5031993;28;20836;-66
2021/05/09 02:24:50;;;;;;;7.20;4.90;;;;;;;10.17;45.61;95781.34;5050965;28;20475;-69
2021/05/09 02:27:17;;;;;;;5.73;4.93;;;;;;;9.95;45.57;95759.38;5032745;28;20542;-70
2021/05/09 02:29:44;;;;;;;6.50;5.17;;;;;;;10.04;45.67;95773.69;5046749;28;20475;-64
2021/05/09 02:32:11;;;;;;;5.23;4.73;;;;;;;10.04;45.95;95773.69;5016054;28;20443;-68
2021/05/09 02:34:38;;;;;;;9.73;5.70;;;;;;;9.76;46.74;95784.09;5032621;28;20447;-72
2021/05/09 02:37:07;;;;;;;6.57;5.07;;;;;;;9.57;47.17;95780.00;5049354;28;21024;-66
2021/05/09 02:39:34;;;;;;;6.93;5.80;;;;;;;9.63;48.00;95792.16;5052226;28;20452;-68
2021/05/09 02:42:02;;;;;;;5.97;4.83;;;;;;;9.57;47.66;95787.84;5051643;28;20590;-70
2021/05/09 02:44:29;;;;;;;8.97;6.00;;;;;;;9.72;47.25;95786.38;5069732;28;20507;-70
2021/05/09 02:46:55;;;;;;;8.27;5.10;;;;;;;9.66;46.82;95782.03;5069070;28;20891;-69
2021/05/09 02:49:23;;;;;;;11.30;6.33;;;;;;;9.66;46.63;95791.72;5052059;28;20473;-65
2021/05/09 02:51:52;;;;;;;6.73;5.10;;;;;;;9.52;46.92;95811.28;5051942;28;20537;-70
2021/05/09 02:54:20;;;;;;;8.23;5.30;;;;;;;9.57;47.26;95809.56;5051569;28;20450;-68
2021/05/09 02:56:47;;;;;;;10.10;4.80;;;;;;;9.44;47.95;95803.75;5052187;28;20453;-67
2021/05/09 02:59:14;;;;;;;9.23;4.90;;;;;;;9.49;47.02;95804.66;5069464;28;20449;-68
2021/05/09 03:01:41;;;;;;;6.53;4.97;;;;;;;9.47;46.74;95803.31;5070102;28;20975;-70
2021/05/09 03:04:08;;;;;;;6.03;4.70;;;;;;;9.30;47.32;95781.44;5069862;28;20934;-66
2021/05/09 03:06:36;;;;;;;6.77;4.87;;;;;;;9.42;46.99;95800.56;5069838;28;20495;-67
2021/05/09 03:09:05;;;;;;;7.93;5.10;;;;;;;9.45;47.15;95810.59;5068764;28;20489;-70
2021/05/09 03:11:33;;;;;;;21.07;6.73;;;;;;;9.17;47.16;95816.44;5051544;28;20442;-67
2021/05/09 03:14:00;;;;;;;7.07;5.00;;;;;;;9.27;47.47;95824.53;5069207;28;20449;-67
2021/05/09 03:16:26;;;;;;;6.00;4.50;;;;;;;9.18;47.04;95826.69;5071872;28;20438;-64
2021/05/09 03:18:52;;;;;;;5.03;4.37;;;;;;;9.15;47.41;95816.69;5061694;28;20442;-69
2021/05/09 03:21:21;;;;;;;5.50;4.00;;;;;;;8.93;47.55;95818.19;5050396;28;20470;-68
2021/05/09 03:23:48;;;;;;;6.33;4.07;;;;;;;8.91;47.74;95809.78;5051326;28;20435;-66
2021/05/09 03:26:14;;;;;;;10.23;4.40;;;;;;;8.98;47.71;95820.94;5053963;28;20455;-67
2021/05/09 03:28:41;;;;;;;7.00;4.17;;;;;;;9.06;48.19;95818.00;5053569;28;20943;-67
2021/05/09 03:31:07;;;;;;;7.33;4.37;;;;;;;9.15;48.03;95826.31;5053923;28;20447;-68
2021/05/09 03:33:34;;;;;;;9.07;4.07;;;;;;;9.27;48.12;95815.91;5060107;28;20438;-67
2021/05/09 03:36:00;;;;;;;6.70;4.57;;;;;;;9.46;47.48;95831.28;5069548;28;20867;-68
2021/05/09 03:38:27;;;;;;;5.20;4.37;;;;;;;9.51;47.87;95834.00;5073051;28;20442;-69
2021/05/09 03:40:53;;;;;;;5.50;4.40;;;;;;;9.58;47.15;95826.09;5073655;28;20450;-68
2021/05/09 03:43:20;;;;;;;5.83;4.53;;;;;;;9.75;47.23;95832.22;5072740;28;20528;-69
2021/05/09 03:45:47;;;;;;;7.23;5.60;;;;;;;9.78;47.05;95837.78;5073337;28;20523;-68
2021/05/09 03:48:13;;;;;;;12.33;6.50;;;;;;;9.44;47.22;95845.59;5072579;28;20890;-66
2021/05/09 03:50:40;;;;;;;9.40;6.00;;;;;;;9.61;46.80;95846.56;5073526;28;20445;-68
2021/05/09 03:53:06;;;;;;;7.97;5.30;;;;;;;9.66;47.08;95857.13;5072777;28;20456;-67
2021/05/09 03:55:33;;;;;;;8.57;5.60;;;;;;;9.67;46.74;95866.59;5073417;28;20503;-65
2021/05/09 03:57:59;;;;;;;10.47;6.13;;;;;;;9.75;46.87;95863.63;5073066;28;20829;-67
2021/05/09 04:00:26;;;;;;;9.20;5.80;;;;;;;9.13;47.93;95868.41;5072931;28;20488;-69
2021/05/09 04:02:54;;;;;;;11.37;5.73;;;;;;;9.42;47.40;95865.94;5072837;28;20562;-66
2021/05/09 04:05:20;;;;;;;10.83;6.40;;;;;;;9.77;46.10;95861.59;5073068;28;20442;-70
2021/05/09 04:07:47;;;;;;;9.70;6.10;;;;;;;9.84;46.74;95864.88;5072311;28;20434;-68
2021/05/09 04:10:14;;;;;;;11.63;6.60;;;;;;;9.70;47.48;95872.16;5072999;28;20480;-67
2021/05/09 04:12:40;;;;;;;9.30;5.90;;;;;;;9.12;48.14;95876.47;5072356;28;20438;-65
2021/05/09 04:15:07;;;;;;;6.57;5.40;;;;;;;8.73;48.60;95880.38;5046698;28;20470;-69
2021/05/09 04:17:34;;;;;;;6.17;5.53;;;;;;;9.33;48.78;95875.16;5066563;28;20480;-64
2021/05/09 04:20:01;;;;;;;7.97;5.80;;;;;;;9.58;47.92;95860.09;5035087;28;20863;-67
2021/05/09 04:22:28;;;;;;;11.50;5.50;;;;;;;9.81;47.27;95878.44;5052914;28;20447;-70
2021/05/09 04:24:55;;;;;;;11.67;6.30;;;;;;;9.97;46.64;95877.75;5053780;28;20952;-66
2021/05/09 04:27:21;;;;;;;12.40;6.80;;;;;;;10.14;46.35;95881.34;5052731;28;21032;-69
2021/05/09 04:29:48;;;;;;;14.30;6.70;;;;;;;10.31;46.45;95879.59;5052920;28;20479;-70
2021/05/09 04:32:15;;;;;;;11.47;5.80;;;;;;;10.08;45.92;95877.75;5052615;28;21319;-66
2021/05/09 04:34:44;;;;;;;10.97;5.17;;;;;;;9.93;46.06;95876.59;5052792;28;20435;-65
2021/05/09 04:37:11;;;;;;;8.43;5.53;;;;;;;10.15;46.05;95885.53;5070157;28;20450;-68
2021/05/09 04:39:37;;;;;;;8.13;5.60;;;;;;;10.18;44.84;95892.94;5073360;28;20435;-70
2021/05/09 04:42:04;;;;;;;6.77;5.00;;;;;;;10.09;46.66;95887.25;5059359;28;20434;-70
2021/05/09 04:44:31;;;;;;;7.63;5.57;;;;;;;10.35;45.34;95896.44;5073442;28;20470;-68
2021/05/09 04:46:58;;;;;;;10.83;6.47;;;;;;;10.28;45.83;95906.25;5071492;28;20474;-67
2021/05/09 04:49:26;;;;;;;9.33;6.20;;;;;;;10.30;45.77;95914.69;5072240;28;20580;-69
2021/05/09 04:51:53;;;;;;;9.03;5.47;;;;;;;10.37;45.51;95904.06;5072254;28;21020;-69
2021/05/09 04:54:19;;;;;;;8.37;4.80;;;;;;;10.46;45.44;95906.13;5072196;28;21142;-71
2021/05/09 04:56:46;;;;;;;8.53;4.80;;;;;;;10.54;45.51;95900.53;5072096;28;20448;-73
2021/05/09 04:59:12;;;;;;;7.47;5.53;;;;;;;10.53;46.06;95898.94;5071267;28;20521;-64
2021/05/09 05:01:38;;;;;;;8.23;4.77;;;;;;;10.37;46.38;95898.84;5062836;28;20529;-68
2021/05/09 05:04:05;;;;;;;8.07;4.53;;;;;;;10.49;44.68;95897.78;5066061;28;20454;-65
2021/05/09 05:06:32;;;;;;;12.70;5.50;;;;;;;10.48;45.89;95901.47;5060265;28;20456;-67
2021/05/09 05:08:58;;;;;;;9.33;5.50;;;;;;;10.65;45.66;95897.09;5071964;28;20484;-67
2021/05/09 05:11:25;;;;;;;5.93;4.50;;;;;;;10.52;44.45;95896.56;5058267;28;20446;-66
2021/05/09 05:13:51;;;;;;;6.03;4.27;;;;;;;10.40;45.05;95899.19;5071553;28;20445;-71
2021/05/09 05:16:18;;;;;;;8.37;4.20;;;;;;;10.56;45.02;95895.88;5071426;28;20872;-70
2021/05/09 05:18:44;;;;;;;7.43;4.37;;;;;;;10.84;44.46;95901.16;5060657;28;20972;-72
2021/05/09 05:21:11;;;;;;;7.37;4.93;;;;;;;10.79;44.97;95893.19;5054622;28;20452;-68
2021/05/09 05:23:38;;;;;;;10.13;5.10;;;;;;;10.35;46.44;95904.31;5062496;28;20478;-70
2021/05/09 05:26:05;;;;;;;7.10;5.20;;;;;;;10.62;45.16;95902.78;5052171;28;20577;-66
2021/05/09 05:28:32;;;;;;;7.93;4.40;;;;;;;10.79;44.95;95911.53;5051483;28;21015;-70
2021/05/09 05:30:59;;;;;;;7.67;4.73;;;;;;;10.91;44.80;95909.69;5051593;28;20485;-66
2021/05/09 05:33:31;;;;;;;6.73;4.63;;;;;;;11.15;44.67;95907.78;5051605;28;20975;-68
2021/05/09 05:36:00;;;;;;;8.37;4.60;;;;;;;10.94;44.29;95911.06;5059841;28;20434;-72
2021/05/09 05:38:26;;;;;;;6.60;4.87;;;;;;;11.10;44.95;95918.19;5070946;28;20958;-66
2021/05/09 05:40:55;;;;;;;10.67;5.20;;;;;;;10.69;44.46;95913.94;5071141;28;21025;-68
2021/05/09 05:43:27;;;;;;;7.70;5.17;;;;;;;10.84;45.09;95921.31;5070949;28;20529;-72
2021/05/09 05:45:54;;;;;;;5.83;4.57;;;;;;;10.92;46.26;95928.84;5038795;28;20462;-71
2021/05/09 05:48:21;;;;;;;7.50;4.93;;;;;;;11.16;45.36;95927.75;5069818;28;20489;-68
2021/05/09 05:50:49;;;;;;;6.70;5.20;;;;;;;10.99;45.64;95914.56;5070607;28;20441;-73
2021/05/09 05:53:17;;;;;;;6.63;4.63;;;;;;;11.08;44.34;95913.16;5070607;28;20971;-69
2021/05/09 05:55:45;;;;;;;8.17;5.07;;;;;;;11.33;44.40;95930.44;5052774;28;20978;-70
2021/05/09 05:58:12;;;;;;;6.57;5.33;;;;;;;11.39;45.48;95932.09;5070314;28;20473;-68
2021/05/09 06:00:38;;;;;;;7.23;4.43;;;;;;;11.35;43.34;95931.00;5069692;28;20500;-70
2021/05/09 06:03:05;;;;;;;7.50;4.67;;;;;;;11.20;44.82;95911.28;5068901;28;20532;-69
2021/05/09 06:05:32;;;;;;;8.47;5.17;;;;;;;11.52;45.22;95918.69;5068607;28;20460;-68
2021/05/09 06:07:58;;;;;;;6.50;4.53;;;;;;;11.64;43.97;95919.44;5072467;28;20438;-69
2021/05/09 06:10:24;;;;;;;10.50;5.20;;;;;;;11.77;43.10;95922.56;5066736;28;20469;-71
2021/05/09 06:12:54;;;;;;;6.50;5.13;;;;;;;11.69;43.32;95935.31;5065400;28;20442;-71
2021/05/09 06:15:21;;;;;;;10.30;4.83;;;;;;;11.75;42.44;95929.13;5065628;28;20500;-71
2021/05/09 06:17:47;;;;;;;8.60;5.03;;;;;;;11.87;42.79;95919.31;5064346;28;20521;-67
2021/05/09 06:20:14;;;;;;;6.47;4.40;;;;;;;11.78;43.34;95912.88;5067165;28;20945;-68
2021/05/09 06:22:41;;;;;;;9.27;4.80;;;;;;;12.05;43.36;95930.41;5065535;28;20438;-64
2021/05/09 06:25:08;;;;;;;5.77;4.23;;;;;;;12.00;43.23;95938.22;5068014;28;20864;-70
2021/05/09 06:27:35;;;;;;;6.77;4.40;;;;;;;12.12;41.82;95927.59;5047681;28;20533;-71
2021/05/09 06:30:03;;;;;;;7.33;4.30;;;;;;;12.21;42.05;95934.03;5063093;28;20474;-66
2021/05/09 06:32:30;;;;;;;9.47;4.50;;;;;;;12.35;42.52;95926.63;5066325;28;20442;-68
2021/05/09 06:34:58;;;;;;;9.57;5.10;;;;;;;12.35;42.14;95924.81;5047029;28;20573;-72
2021/05/09 06:37:25;;;;;;;8.33;4.67;;;;;;;12.51;42.43;95929.25;5062882;28;20461;-73
2021/05/09 06:39:52;;;;;;;8.77;4.60;;;;;;;12.36;42.11;95925.59;5066105;28;20450;-70
2021/05/09 06:42:19;;;;;;;11.03;4.63;;;;;;;12.50;40.67;95925.00;5063979;28;20446;-69
2021/05/09 06:44:51;;;;;;;6.63;4.47;;;;;;;12.49;40.71;95928.69;5066274;28;20529;-68
2021/05/09 06:47:17;;;;;;;7.37;4.73;;;;;;;12.59;42.09;95928.03;5065207;28;20475;-68
2021/05/09 06:49:44;;;;;;;10.47;4.17;;;;;;;12.83;41.60;95924.13;5067171;28;20470;-69
2021/05/09 06:52:10;;;;;;;11.77;4.73;;;;;;;13.11;42.04;95935.31;5067958;28;20442;-66
2021/05/09 06:54:37;;;;;;;9.10;4.90;;;;;;;13.10;38.86;95935.56;5066644;28;20438;-65
2021/05/09 06:57:03;;;;;;;7.63;4.80;;;;;;;13.34;42.06;95928.97;5066454;28;21001;-64
2021/05/09 06:59:30;;;;;;;10.33;5.23;;;;;;;13.53;40.66;95927.63;5066884;28;20449;-65
2021/05/09 07:01:57;;;;;;;7.73;4.80;;;;;;;13.76;39.76;95926.50;5067250;28;20517;-67
2021/05/09 07:04:24;;;;;;;7.70;4.40;;;;;;;13.93;38.90;95937.72;5065485;28;20438;-65
2021/05/09 07:06:51;;;;;;;7.43;4.20;;;;;;;14.08;38.49;95930.75;5068229;28;20521;-66
2021/05/09 07:09:17;;;;;;;5.63;4.37;;;;;;;14.22;37.42;95936.38;5068388;28;21283;-68
2021/05/09 07:11:43;;;;;;;7.50;4.17;;;;;;;13.84;35.21;95928.69;5066306;28;20529;-68
2021/05/09 07:14:10;;;;;;;12.10;7.33;;;;;;;14.25;35.37;95941.13;5065643;28;20442;-67
2021/05/09 07:16:36;;;;;;;87.63;74.17;;;;;;;14.49;35.62;95942.41;5067713;28;20822;-68
2021/05/09 07:19:06;;;;;;;8.50;4.13;;;;;;;14.63;34.38;95927.75;5066981;28;20470;-70
2021/05/09 07:21:38;;;;;;;4.70;3.80;;;;;;;14.44;32.86;95931.03;5066469;28;20989;-70
2021/05/09 07:24:05;;;;;;;52.97;36.57;;;;;;;14.22;33.21;95931.09;5065015;28;20444;-68
2021/05/09 07:26:31;;;;;;;87.77;67.97;;;;;;;14.35;34.13;95928.06;5068181;28;20503;-71
2021/05/09 07:28:58;;;;;;;8.53;5.83;;;;;;;14.58;33.37;95930.31;5065763;28;20454;-69
2021/05/09 07:31:25;;;;;;;3.57;3.10;;;;;;;14.64;32.37;95916.13;5062967;28;20548;-69
2021/05/09 07:33:51;;;;;;;8.23;4.43;;;;;;;14.89;33.95;95926.03;5068717;28;20438;-71
2021/05/09 07:36:18;;;;;;;51.07;40.03;;;;;;;15.06;33.32;95932.69;5067160;28;20449;-68
2021/05/09 07:38:44;;;;;;;167.53;141.70;;;;;;;15.11;33.51;95919.50;5061144;28;20431;-73
2021/05/09 07:41:11;;;;;;;7.67;3.60;;;;;;;14.90;32.34;95923.13;5062000;28;20449;-70
2021/05/09 07:43:37;;;;;;;12.10;4.07;;;;;;;15.02;33.34;95931.63;5066793;28;20987;-65
2021/05/09 07:46:04;;;;;;;6.43;3.87;;;;;;;14.96;33.16;95927.34;5069938;28;20501;-65
2021/05/09 07:48:31;;;;;;;7.57;4.17;;;;;;;14.81;33.04;95919.41;5068385;28;21020;-69
2021/05/09 07:50:57;;;;;;;7.23;3.63;;;;;;;14.90;33.33;95923.13;5063197;28;20990;-68
2021/05/09 07:53:24;;;;;;;5.13;2.90;;;;;;;14.98;33.34;95914.69;5071258;28;20438;-72
2021/05/09 07:55:50;;;;;;;13.47;3.27;;;;;;;15.06;33.30;95922.16;5068153;28;20542;-66
2021/05/09 07:58:19;;;;;;;5.43;3.30;;;;;;;14.89;32.07;95923.41;5068765;28;20966;-66
2021/05/09 08:00:49;;;;;;;8.20;5.13;;;;;;;15.31;32.46;95913.50;5048012;28;20465;-74
2021/05/09 08:03:16;;;;;;;5.97;3.43;;;;;;;15.54;32.97;95912.28;5067545;28;20481;-68
2021/05/09 08:05:44;;;;;;;4.73;3.07;;;;;;;15.62;33.68;95914.41;5066920;28;20448;-72
2021/05/09 08:08:11;;;;;;;3.33;2.57;;;;;;;15.77;32.77;95903.84;5068340;28;20454;-67
2021/05/09 08:10:42;;;;;;;6.83;2.93;;;;;;;15.88;31.69;95910.72;5069450;28;20516;-67
2021/05/09 08:13:12;;;;;;;4.67;2.90;;;;;;;15.71;31.01;95913.63;5067511;28;21052;-68
2021/05/09 08:15:39;;;;;;;10.90;3.70;;;;;;;15.53;30.82;95910.72;5069833;28;20955;-66
2021/05/09 08:18:06;;;;;;;5.57;2.83;;;;;;;15.89;30.75;95909.69;5068867;28;20622;-68
2021/05/09 08:20:33;;;;;;;4.40;2.80;;;;;;;15.96;31.10;95895.16;5070268;28;20458;-65
2021/05/09 08:23:00;;;;;;;2.90;2.37;;;;;;;16.12;29.61;95903.88;5070114;28;20523;-68
2021/05/09 08:25:26;;;;;;;5.40;3.03;;;;;;;15.94;28.62;95896.47;5071162;28;20430;-67
2021/05/09 08:27:53;;;;;;;4.47;2.47;;;;;;;16.09;28.89;95904.41;5068273;28;20534;-68
2021/05/09 08:30:22;;;;;;;3.10;2.30;;;;;;;16.15;29.14;95908.63;5067484;28;20480;-68
2021/05/09 08:32:49;;;;;;;5.40;2.30;;;;;;;16.17;30.46;95911.78;5069271;28;20445;-69
2021/05/09 08:35:15;;;;;;;5.07;3.10;;;;;;;16.19;29.75;95893.81;5068664;28;20938;-66
2021/05/09 08:37:43;;;;;;;5.87;3.10;;;;;;;16.24;32.34;95899.91;5068390;28;20537;-70
2021/05/09 08:40:15;;;;;;;4.13;2.80;;;;;;;16.60;31.08;95898.03;5067982;28;20438;-68
2021/05/09 08:42:43;;;;;;;59.20;46.97;;;;;;;16.96;30.57;95896.84;5069185;28;20474;-65
2021/05/09 08:45:10;;;;;;;63.77;53.07;;;;;;;17.23;30.66;95899.91;5070159;28;20513;-65
2021/05/09 08:47:42;;;;;;;3.40;2.90;;;;;;;16.95;29.48;95897.91;5068740;28;20470;-66
2021/05/09 08:50:14;;;;;;;8.17;3.27;;;;;;;16.91;30.06;95899.53;5065118;28;20483;-66
2021/05/09 08:52:43;;;;;;;7.27;3.43;;;;;;;17.06;30.51;95893.38;5071283;28;20470;-67
2021/05/09 08:55:12;;;;;;;5.20;3.20;;;;;;;17.26;30.76;95897.78;5070289;28;20468;-67
2021/05/09 08:57:41;;;;;;;8.73;3.67;;;;;;;17.49;32.27;95881.25;5063034;28;20544;-65
2021/05/09 09:00:11;;;;;;;9.43;2.80;;;;;;;17.58;31.22;95884.91;5068937;28;20474;-65
2021/05/09 09:02:53;;;;;;;4.60;2.60;;;;;;;17.69;30.31;95883.78;5069275;28;20456;-68
2021/05/09 09:05:35;;;;;;;5.03;2.50;;;;;;;17.64;30.42;95889.13;5070528;28;20446;-66
2021/05/09 09:08:02;;;;;;;4.37;2.50;;;;;;;17.84;28.40;95883.69;5070713;28;20442;-69
2021/05/09 09:11:31;;;;;;;2.57;1.67;;;;;;;17.99;27.58;95880.91;5066995;27;20575;-68
2021/05/09 09:14:08;;;;;;;4.97;1.60;;;;;;;18.00;28.35;95872.69;5064154;28;20509;-66
2021/05/09 09:16:36;;;;;;;49.57;33.77;;;;;;;18.12;27.86;95874.94;5066162;28;20541;-65
2021/05/09 09:19:08;;;;;;;12.13;9.83;;;;;;;18.33;26.91;95859.66;5067728;28;20545;-66
2021/05/09 09:21:34;;;;;;;7.23;2.40;;;;;;;18.45;29.21;95860.88;5068460;28;21042;-65
2021/05/09 09:24:07;;;;;;;3.43;1.73;;;;;;;18.96;27.30;95853.94;5067435;28;21037;-64
2021/05/09 09:26:41;;;;;;;2.10;1.70;;;;;;;19.03;27.64;95859.69;5066588;28;20444;-66
2021/05/09 09:29:22;;;;;;;2.90;1.50;;;;;;;19.04;27.89;95861.28;5066581;28;20454;-64
2021/05/09 09:32:02;;;;;;;4.23;1.97;;;;;;;19.05;27.46;95867.38;5066159;28;20529;-67
2021/05/09 09:34:44;;;;;;;4.30;1.60;;;;;;;19.21;25.88;95850.19;5067998;28;20438;-64
2021/05/09 09:37:13;;;;;;;3.63;1.83;;;;;;;19.49;25.83;95867.13;5066550;28;20484;-67
2021/05/09 09:40:02;;;;;;;2.57;1.97;;;;;;;19.27;26.35;95853.56;5066005;28;20466;-64
2021/05/09 09:42:41;;;;;;;32.87;21.50;;;;;;;19.48;26.30;95854.88;5071327;28;20197;-62
2021/05/09 09:45:20;;;;;;;24.53;13.70;;;;;;;19.66;25.15;95851.44;5066073;28;20442;-63
2021/05/09 09:48:01;;;;;;;2.73;2.17;;;;;;;19.78;25.79;95844.56;5068814;28;20192;-66
2021/05/09 09:50:49;;;;;;;2.73;1.87;;;;;;;19.71;25.32;95848.69;5068167;28;20470;-64
2021/05/09 09:53:40;;;;;;;3.23;1.70;;;;;;;19.68;22.45;95849.28;5075475;28;20303;-64
2021/05/09 09:56:09;;;;;;;4.27;1.60;;;;;;;19.78;23.11;95849.13;5094900;28;20221;-66
2021/05/09 09:58:50;;;;;;;12.40;8.93;;;;;;;19.94;24.36;95845.16;5089869;28;20205;-65
2021/05/09 10:01:23;;;;;;;49.80;42.47;;;;;;;19.77;22.23;95836.91;5080051;28;20195;-64
2021/05/09 10:03:51;;;;;;;3.90;1.57;;;;;;;20.20;23.72;95850.88;5088454;28;20184;-68
2021/05/09 10:06:18;;;;;;;2.17;1.60;;;;;;;20.21;22.24;95839.94;5069356;28;20192;-63
2021/05/09 10:08:45;;;;;;;7.07;1.80;;;;;;;20.41;23.06;95834.25;5078088;28;20198;-61
2021/05/09 10:11:12;;;;;;;5.67;1.60;;;;;;;20.29;22.17;95836.56;5067374;28;20240;-66
2021/05/09 10:13:39;;;;;;;6.53;2.60;;;;;;;20.57;21.79;95840.88;5086719;28;20254;-61
2021/05/09 10:16:07;;;;;;;6.97;2.20;;;;;;;20.69;22.98;95830.50;5087052;28;20210;-64
2021/05/09 10:18:37;;;;;;;84.23;26.80;;;;;;;20.66;22.74;95824.97;5081331;28;20304;-63
2021/05/09 10:21:04;;;;;;;6.23;2.43;;;;;;;20.86;21.61;95824.56;5076874;28;20833;-65
2021/05/09 10:23:30;;;;;;;3.63;1.90;;;;;;;21.22;20.90;95816.69;5066996;28;20206;-65
2021/05/09 10:25:58;;;;;;;3.33;1.37;;;;;;;21.26;20.20;95818.44;5064468;28;20228;-64
2021/05/09 10:28:38;;;;;;;3.47;1.80;;;;;;;21.05;20.59;95823.44;5072242;28;20184;-65
2021/05/09 10:31:05;;;;;;;9.03;3.40;;;;;;;20.93;21.19;95814.31;5063116;28;20216;-64
2021/05/09 10:33:38;;;;;;;2.80;1.43;;;;;;;20.99;20.57;95821.13;5055254;28;20192;-63
2021/05/09 10:36:06;;;;;;;3.97;1.30;;;;;;;21.23;20.17;95816.38;5063140;28;22350;-63
2021/05/09 10:39:09;;;;;;;3.17;1.23;;;;;;;21.08;19.82;95814.81;5065612;28;20211;-65
2021/05/09 10:41:54;;;;;;;7.87;3.23;;;;;;;21.42;19.74;95814.38;5064499;28;20198;-64
2021/05/09 10:44:46;;;;;;;1.50;1.10;;;;;;;21.72;20.33;95802.19;5063024;28;20199;-64
2021/05/09 10:47:16;;;;;;;6.53;1.00;;;;;;;21.88;20.27;95800.75;5067765;28;20493;-64
2021/05/09 10:50:14;;;;;;;35.50;31.93;;;;;;;22.39;22.44;95800.28;5057113;28;20220;-65
2021/05/09 10:52:46;;;;;;;16.73;14.97;;;;;;;21.32;19.29;95803.13;5060052;28;20203;-62
2021/05/09 10:55:37;;;;;;;3.87;1.67;;;;;;;21.96;19.62;95789.34;5059967;28;20241;-69
2021/05/09 10:58:04;;;;;;;7.97;1.90;;;;;;;22.07;20.15;95791.47;5061399;28;20560;-62
2021/05/09 11:00:56;;;;;;;5.03;1.00;;;;;;;22.01;20.25;95790.00;5064632;28;20194;-64
2021/05/09 11:03:42;;;;;;;2.10;1.13;;;;;;;21.90;19.99;95787.91;5053462;28;20262;-63
2021/05/09 11:06:10;;;;;;;8.97;1.50;;;;;;;21.91;21.71;95789.50;5059105;28;20227;-65
2021/05/09 11:08:47;;;;;;;3.70;1.20;;;;;;;22.36;20.10;95780.31;5061677;28;20199;-67
2021/05/09 11:11:18;;;;;;;6.67;1.47;;;;;;;22.55;19.88;95778.22;5059565;28;20258;-64
2021/05/09 11:14:00;;;;;;;24.27;19.57;;;;;;;22.60;20.12;95775.41;5064310;28;20223;-64
2021/05/09 11:17:01;;;;;;;5.23;1.60;;;;;;;22.59;19.38;95773.03;5061028;28;20630;-65
2021/05/09 11:19:35;;;;;;;7.33;2.93;;;;;;;22.45;20.16;95778.44;5061911;28;20200;-66
2021/05/09 11:22:02;;;;;;;2.60;1.37;;;;;;;21.91;19.30;95766.25;5058755;28;20196;-65
2021/05/09 11:24:34;;;;;;;2.97;1.53;;;;;;;22.08;20.07;95769.00;5060102;28;20558;-64
2021/05/09 11:27:12;;;;;;;3.97;1.03;;;;;;;22.28;20.53;95772.25;5060006;28;20215;-66
2021/05/09 11:29:41;;;;;;;5.20;1.20;;;;;;;22.37;19.30;95755.16;5058398;28;20220;-66
2021/05/09 11:32:13;;;;;;;5.00;1.30;;;;;;;22.79;20.65;95762.56;5054328;28;20665;-61
2021/05/09 11:34:49;;;;;;;3.93;1.50;;;;;;;22.02;18.75;95756.88;5067072;28;20214;-61
2021/05/09 11:37:16;;;;;;;6.93;1.53;;;;;;;22.18;19.74;95751.94;5060829;28;20199;-63
2021/05/09 11:39:43;;;;;;;4.70;1.27;;;;;;;22.58;19.77;95756.22;5071678;28;20637;-66
2021/05/09 11:42:16;;;;;;;1.57;1.07;;;;;;;22.79;19.58;95746.53;5063135;28;20250;-65
2021/05/09 11:44:46;;;;;;;5.07;1.43;;;;;;;23.11;19.11;95758.69;5060587;28;20196;-64